createdAt,value
2018-11-29T00:00:20.216Z,5.40
2018-11-29T00:02:48.684Z,5.30
2018-11-29T00:05:16.890Z,5.30
2018-11-29T00:07:45.061Z,5.30
2018-11-29T00:10:13.338Z,5.30
2018-11-29T00:12:41.567Z,5.20
2018-11-29T00:15:11.798Z,5.30
2018-11-29T00:17:40.064Z,5.20
2018-11-29T00:20:12.126Z,5.30
2018-11-29T00:22:40.505Z,5.20
2018-11-29T00:25:09.828Z,5.20
2018-11-29T00:27:38.083Z,5.20
2018-11-29T00:30:08.938Z,5.20
2018-11-29T00:32:37.138Z,5.20
2018-11-29T00:35:06.732Z,5.20
2018-11-29T00:37:34.999Z,5.20
2018-11-29T00:40:03.573Z,5.20
2018-11-29T00:42:31.812Z,5.20
2018-11-29T00:45:00.043Z,5.20
2018-11-29T00:47:28.252Z,5.10
2018-11-29T00:49:56.477Z,5.20
2018-11-29T00:52:24.651Z,5.20
2018-11-29T00:54:52.911Z,5.20
2018-11-29T00:57:21.151Z,5.20
2018-11-29T00:59:49.389Z,5.20
2018-11-29T01:02:17.666Z,5.20
2018-11-29T01:04:45.891Z,5.20
2018-11-29T01:07:14.098Z,5.20
2018-11-29T01:09:42.296Z,5.20
2018-11-29T01:12:10.470Z,5.20
2018-11-29T01:14:38.682Z,5.20
2018-11-29T01:17:06.932Z,5.20
2018-11-29T01:19:35.198Z,5.20
2018-11-29T01:22:03.421Z,5.10
2018-11-29T01:24:31.641Z,5.10
2018-11-29T01:27:00.669Z,5.10
2018-11-29T01:29:28.911Z,5.10
2018-11-29T01:31:57.089Z,5.10
2018-11-29T01:34:25.363Z,5.10
2018-11-29T01:36:53.656Z,5.20
2018-11-29T01:39:21.926Z,5.20
2018-11-29T01:41:50.202Z,5.10
2018-11-29T01:44:18.483Z,5.10
2018-11-29T01:46:46.689Z,5.10
2018-11-29T01:49:14.914Z,5.10
2018-11-29T01:51:43.190Z,5.10
2018-11-29T01:54:11.486Z,5.10
2018-11-29T01:56:39.746Z,5.10
2018-11-29T01:59:08.011Z,5.10
2018-11-29T02:01:36.304Z,5.00
2018-11-29T02:04:04.935Z,5.00
2018-11-29T02:06:33.180Z,4.90
2018-11-29T02:09:01.497Z,4.90
2018-11-29T02:11:29.742Z,4.80
2018-11-29T02:13:58.038Z,4.80
2018-11-29T02:16:26.331Z,4.90
2018-11-29T02:18:54.590Z,4.90
2018-11-29T02:21:22.821Z,4.90
2018-11-29T02:23:51.102Z,4.90
2018-11-29T02:26:19.574Z,4.90
2018-11-29T02:28:47.945Z,4.90
2018-11-29T02:31:16.287Z,4.90
2018-11-29T02:33:44.554Z,4.90
2018-11-29T02:36:12.747Z,4.90
2018-11-29T02:38:41.137Z,4.90
2018-11-29T02:41:09.398Z,4.90
2018-11-29T02:43:37.625Z,4.90
2018-11-29T02:46:06.091Z,5.00
2018-11-29T02:48:34.361Z,4.90
2018-11-29T02:51:02.557Z,4.90
2018-11-29T02:53:30.781Z,5.00
2018-11-29T02:55:59.053Z,5.00
2018-11-29T02:58:27.278Z,4.90
2018-11-29T03:00:55.490Z,4.90
2018-11-29T03:03:23.724Z,4.90
2018-11-29T03:05:51.914Z,4.90
2018-11-29T03:08:20.132Z,4.80
2018-11-29T03:10:48.432Z,4.80
2018-11-29T03:13:16.644Z,4.70
2018-11-29T03:15:44.918Z,4.70
2018-11-29T03:18:13.160Z,4.70
2018-11-29T03:20:41.475Z,4.70
2018-11-29T03:23:09.714Z,4.60
2018-11-29T03:25:37.961Z,4.60
2018-11-29T03:28:06.589Z,4.50
2018-11-29T03:30:34.848Z,4.50
2018-11-29T03:33:03.226Z,4.40
2018-11-29T03:35:31.501Z,4.40
2018-11-29T03:37:59.800Z,4.30
2018-11-29T03:40:28.080Z,4.30
2018-11-29T03:42:56.597Z,4.20
2018-11-29T03:45:24.835Z,4.20
2018-11-29T03:47:53.078Z,4.10
2018-11-29T03:50:21.343Z,4.00
2018-11-29T03:52:49.567Z,4.00
2018-11-29T03:55:17.875Z,3.90
2018-11-29T03:57:46.119Z,3.90
2018-11-29T04:00:17.950Z,3.90
2018-11-29T04:02:47.204Z,3.90
2018-11-29T04:05:15.457Z,3.80
2018-11-29T04:07:43.702Z,3.70
2018-11-29T04:10:12.930Z,3.80
2018-11-29T04:12:41.410Z,3.70
2018-11-29T04:15:10.985Z,3.70
2018-11-29T04:17:40.841Z,3.70
2018-11-29T04:20:10.299Z,3.70
2018-11-29T04:22:38.568Z,3.70
2018-11-29T04:25:08.166Z,3.80
2018-11-29T04:27:36.478Z,3.70
2018-11-29T04:30:05.802Z,3.70
2018-11-29T04:32:34.026Z,3.70
2018-11-29T04:35:02.329Z,3.70
2018-11-29T04:37:30.688Z,3.70
2018-11-29T04:39:58.971Z,3.60
2018-11-29T04:42:27.180Z,3.60
2018-11-29T04:44:55.436Z,3.60
2018-11-29T04:47:23.671Z,3.60
2018-11-29T04:49:51.965Z,3.60
2018-11-29T04:52:20.183Z,3.60
2018-11-29T04:54:48.439Z,3.60
2018-11-29T04:57:16.647Z,3.60
2018-11-29T04:59:44.875Z,3.70
2018-11-29T05:02:13.147Z,3.60
2018-11-29T05:04:41.399Z,3.70
2018-11-29T05:07:09.726Z,3.70
2018-11-29T05:09:37.919Z,3.70
2018-11-29T05:12:06.151Z,3.70
2018-11-29T05:14:34.374Z,3.70
2018-11-29T05:17:02.606Z,3.70
2018-11-29T05:19:30.924Z,3.70
2018-11-29T05:21:59.167Z,3.60
2018-11-29T05:24:27.377Z,3.70
2018-11-29T05:26:55.649Z,3.60
2018-11-29T05:29:23.902Z,3.60
2018-11-29T05:31:52.234Z,3.60
2018-11-29T05:34:20.467Z,3.50
2018-11-29T05:36:48.811Z,3.50
2018-11-29T05:39:17.031Z,3.40
2018-11-29T05:41:45.293Z,3.40
2018-11-29T05:44:13.538Z,3.40
2018-11-29T05:46:42.679Z,3.40
2018-11-29T05:49:10.096Z,3.40
2018-11-29T05:51:38.462Z,3.30
2018-11-29T05:54:06.779Z,3.30
2018-11-29T05:56:35.068Z,3.30
2018-11-29T05:59:03.315Z,3.30
2018-11-29T06:01:34.158Z,3.30
2018-11-29T06:04:02.619Z,3.30
2018-11-29T06:06:30.912Z,3.20
2018-11-29T06:08:59.154Z,3.20
2018-11-29T06:11:27.451Z,3.20
2018-11-29T06:13:55.715Z,3.20
2018-11-29T06:16:23.935Z,3.20
2018-11-29T06:18:52.203Z,3.20
2018-11-29T06:21:20.573Z,3.10
2018-11-29T06:23:48.842Z,3.10
2018-11-29T06:26:17.200Z,3.10
2018-11-29T06:28:45.406Z,3.10
2018-11-29T06:31:13.691Z,3.10
2018-11-29T06:33:41.929Z,3.10
2018-11-29T06:36:10.139Z,3.10
2018-11-29T06:38:38.450Z,3.10
2018-11-29T06:41:06.785Z,3.00
2018-11-29T06:43:35.987Z,3.00
2018-11-29T06:46:04.328Z,3.00
2018-11-29T06:48:32.614Z,3.00
2018-11-29T06:51:00.808Z,3.00
2018-11-29T06:53:34.495Z,2.90
2018-11-29T06:56:02.699Z,3.00
2018-11-29T06:58:30.944Z,2.90
2018-11-29T07:00:59.205Z,2.90
2018-11-29T07:03:28.937Z,2.90
2018-11-29T07:05:55.636Z,2.90
2018-11-29T07:08:23.830Z,2.90
2018-11-29T07:10:52.050Z,2.90
2018-11-29T07:13:20.294Z,2.90
2018-11-29T07:15:48.570Z,2.90
2018-11-29T07:18:16.847Z,2.90
2018-11-29T07:20:55.159Z,2.90
2018-11-29T07:23:23.433Z,2.90
2018-11-29T07:25:51.714Z,3.00
2018-11-29T07:28:19.989Z,3.00
2018-11-29T07:30:48.234Z,3.00
2018-11-29T07:33:16.454Z,3.00
2018-11-29T07:35:44.731Z,3.10
2018-11-29T07:38:12.956Z,3.10
2018-11-29T07:40:41.164Z,3.10
2018-11-29T07:43:09.462Z,3.10
2018-11-29T07:45:37.742Z,3.10
2018-11-29T07:48:06.018Z,3.10
2018-11-29T07:50:34.250Z,3.10
2018-11-29T07:53:02.531Z,3.20
2018-11-29T07:55:30.784Z,3.20
2018-11-29T07:57:59.016Z,3.30
2018-11-29T08:00:27.804Z,3.40
2018-11-29T08:02:56.039Z,3.40
2018-11-29T08:05:24.217Z,3.50
2018-11-29T08:07:52.436Z,3.60
2018-11-29T08:10:21.260Z,3.70
2018-11-29T08:12:49.652Z,3.70
2018-11-29T08:15:19.195Z,3.80
2018-11-29T08:17:47.629Z,3.70
2018-11-29T08:20:18.130Z,3.90
2018-11-29T08:22:46.354Z,4.00
2018-11-29T08:25:14.557Z,4.00
2018-11-29T08:27:42.819Z,4.10
2018-11-29T08:30:12.980Z,4.10
2018-11-29T08:32:41.344Z,4.10
2018-11-29T08:35:10.940Z,4.10
2018-11-29T08:37:39.899Z,4.10
2018-11-29T08:40:10.674Z,4.30
2018-11-29T08:42:38.849Z,4.30
2018-11-29T08:45:09.478Z,4.30
2018-11-29T08:47:37.695Z,4.30
2018-11-29T08:50:07.968Z,4.30
2018-11-29T08:52:36.326Z,4.30
2018-11-29T08:55:05.046Z,4.30
2018-11-29T08:57:33.239Z,4.30
2018-11-29T09:00:01.439Z,4.30
2018-11-29T09:02:29.641Z,4.20
2018-11-29T09:04:57.840Z,4.20
2018-11-29T09:07:26.055Z,4.20
2018-11-29T09:09:54.231Z,4.30
2018-11-29T09:12:22.423Z,4.40
2018-11-29T09:14:50.627Z,4.50
2018-11-29T09:17:18.862Z,4.60
2018-11-29T09:19:47.059Z,4.70
2018-11-29T09:22:15.325Z,4.60
2018-11-29T09:24:43.543Z,4.80
2018-11-29T09:27:11.766Z,4.80
2018-11-29T09:29:39.961Z,4.80
2018-11-29T09:32:08.139Z,4.80
2018-11-29T09:34:36.459Z,4.80
2018-11-29T09:37:04.687Z,4.90
2018-11-29T09:39:32.941Z,5.00
2018-11-29T09:42:01.155Z,5.00
2018-11-29T09:44:29.430Z,5.10
2018-11-29T09:47:04.362Z,5.30
2018-11-29T09:49:32.595Z,5.40
2018-11-29T09:52:00.803Z,5.70
2018-11-29T09:54:28.990Z,5.90
2018-11-29T09:56:57.161Z,6.00
2018-11-29T09:59:25.387Z,6.00
2018-11-29T10:01:54.079Z,6.10
2018-11-29T10:04:22.369Z,6.30
2018-11-29T10:06:50.559Z,6.30
2018-11-29T10:09:18.774Z,6.30
2018-11-29T10:11:47.014Z,6.30
2018-11-29T10:14:15.227Z,6.40
2018-11-29T10:16:43.531Z,6.30
2018-11-29T10:19:11.757Z,6.30
2018-11-29T10:21:39.998Z,6.10
2018-11-29T10:24:08.209Z,6.30
2018-11-29T10:26:36.434Z,6.50
2018-11-29T10:29:04.780Z,6.70
2018-11-29T10:31:32.983Z,6.80
2018-11-29T10:34:01.174Z,6.40
2018-11-29T10:36:29.374Z,6.30
2018-11-29T10:38:57.600Z,6.40
2018-11-29T10:41:25.859Z,6.20
2018-11-29T10:43:54.189Z,6.10
2018-11-29T10:46:22.395Z,6.00
2018-11-29T10:48:50.763Z,6.20
2018-11-29T10:51:18.998Z,6.20
2018-11-29T10:53:47.208Z,6.20
2018-11-29T10:56:15.472Z,6.40
2018-11-29T10:58:43.723Z,7.30
2018-11-29T11:01:17.268Z,7.70
2018-11-29T11:03:45.485Z,6.80
2018-11-29T11:06:19.241Z,6.50
2018-11-29T11:08:47.503Z,6.50
2018-11-29T11:11:15.792Z,6.50
2018-11-29T11:13:44.089Z,6.40
2018-11-29T11:16:12.466Z,6.40
2018-11-29T11:18:40.724Z,6.70
2018-11-29T11:21:08.970Z,6.70
2018-11-29T11:23:37.184Z,7.30
2018-11-29T11:26:05.804Z,6.70
2018-11-29T11:28:34.023Z,6.50
2018-11-29T11:31:02.255Z,6.40
2018-11-29T11:33:30.495Z,6.50
2018-11-29T11:35:58.759Z,6.60
2018-11-29T11:38:27.034Z,6.60
2018-11-29T11:40:55.261Z,6.50
2018-11-29T11:43:23.566Z,6.40
2018-11-29T11:45:51.864Z,6.40
2018-11-29T11:48:20.117Z,6.40
2018-11-29T11:50:48.419Z,6.40
2018-11-29T11:53:16.664Z,6.40
2018-11-29T11:55:44.868Z,6.40
2018-11-29T11:58:13.121Z,6.40
2018-11-29T12:00:41.464Z,6.40
2018-11-29T12:03:14.191Z,6.40
2018-11-29T12:05:42.446Z,6.40
2018-11-29T12:08:10.758Z,6.30
2018-11-29T12:10:40.271Z,6.40
2018-11-29T12:13:08.587Z,6.30
2018-11-29T12:15:37.598Z,6.30
2018-11-29T12:18:07.656Z,6.30
2018-11-29T12:20:35.957Z,6.30
2018-11-29T12:23:04.187Z,6.30
2018-11-29T12:25:32.456Z,6.20
2018-11-29T12:28:00.654Z,6.30
2018-11-29T12:30:31.566Z,6.40
2018-11-29T12:33:01.387Z,6.40
2018-11-29T12:35:29.655Z,6.60
2018-11-29T12:37:58.123Z,6.70
2018-11-29T12:40:26.342Z,6.80
2018-11-29T12:42:54.615Z,6.70
2018-11-29T12:45:22.890Z,6.60
2018-11-29T12:47:51.183Z,6.50
2018-11-29T12:50:21.187Z,6.50
2018-11-29T12:55:52.564Z,6.50
2018-11-29T12:58:20.823Z,6.50
2018-11-29T13:00:49.068Z,6.50
2018-11-29T13:03:17.267Z,6.50
2018-11-29T13:05:45.506Z,6.50
2018-11-29T13:08:13.710Z,6.50
2018-11-29T13:10:41.993Z,6.60
2018-11-29T13:13:10.247Z,6.60
2018-11-29T13:15:38.471Z,6.60
2018-11-29T13:18:07.939Z,6.50
2018-11-29T13:20:36.334Z,6.50
2018-11-29T13:23:04.581Z,6.40
2018-11-29T13:25:32.857Z,6.50
2018-11-29T13:28:01.129Z,6.60
2018-11-29T13:30:29.346Z,6.60
2018-11-29T13:32:57.621Z,6.70
2018-11-29T13:35:40.382Z,6.60
2018-11-29T13:38:13.618Z,6.50
2018-11-29T13:40:43.469Z,6.60
2018-11-29T13:43:11.682Z,6.60
2018-11-29T13:45:39.878Z,6.60
2018-11-29T13:48:09.595Z,6.70
2018-11-29T13:50:38.339Z,6.60
2018-11-29T13:53:06.560Z,6.60
2018-11-29T13:55:34.863Z,6.60
2018-11-29T13:58:03.116Z,6.50
2018-11-29T14:00:31.504Z,6.50
2018-11-29T14:03:01.578Z,6.50
2018-11-29T14:05:29.989Z,6.50
2018-11-29T14:07:58.472Z,6.50
2018-11-29T14:10:26.865Z,6.60
2018-11-29T14:12:55.651Z,6.60
2018-11-29T14:15:27.408Z,6.60
2018-11-29T14:17:55.747Z,6.50
2018-11-29T14:20:24.013Z,6.40
2018-11-29T14:22:52.222Z,6.40
2018-11-29T14:25:20.465Z,6.40
2018-11-29T14:27:51.744Z,6.40
2018-11-29T14:30:21.060Z,6.30
2018-11-29T14:32:52.381Z,6.30
2018-11-29T14:35:20.653Z,6.30
2018-11-29T14:37:48.900Z,6.30
2018-11-29T14:40:18.144Z,6.30
2018-11-29T14:42:46.419Z,6.30
2018-11-29T14:45:15.813Z,6.20
2018-11-29T14:47:44.072Z,6.20
2018-11-29T14:50:44.736Z,6.20
2018-11-29T14:53:13.187Z,6.20
2018-11-29T14:55:41.808Z,6.20
2018-11-29T14:58:11.616Z,6.30
2018-11-29T15:00:40.032Z,6.30
2018-11-29T15:03:09.919Z,6.30
2018-11-29T15:05:38.436Z,6.20
2018-11-29T15:08:08.598Z,6.10
2018-11-29T15:10:37.396Z,6.00
2018-11-29T15:13:07.516Z,6.00
2018-11-29T15:15:36.348Z,6.00
2018-11-29T15:18:04.820Z,6.00
2018-11-29T15:20:36.041Z,5.90
2018-11-29T15:23:04.512Z,5.90
2018-11-29T15:25:33.213Z,5.80
2018-11-29T15:28:01.373Z,5.80
2018-11-29T15:30:29.830Z,5.80
2018-11-29T15:32:58.384Z,5.80
2018-11-29T15:35:26.824Z,5.80
2018-11-29T15:37:55.241Z,5.80
2018-11-29T15:40:23.664Z,5.70
2018-11-29T15:42:52.207Z,5.70
2018-11-29T15:45:21.844Z,5.70
2018-11-29T15:47:50.243Z,5.70
2018-11-29T15:50:18.745Z,5.70
2018-11-29T15:52:47.096Z,5.70
2018-11-29T15:55:20.192Z,5.70
2018-11-29T15:57:49.548Z,5.60
2018-11-29T16:00:20.016Z,5.60
2018-11-29T16:02:48.905Z,5.60
2018-11-29T16:05:17.379Z,5.70
2018-11-29T16:07:45.864Z,5.70
2018-11-29T16:10:15.707Z,5.70
2018-11-29T16:12:44.080Z,5.60
2018-11-29T16:15:14.457Z,5.60
2018-11-29T16:17:43.272Z,5.60
2018-11-29T16:20:13.202Z,5.60
2018-11-29T16:22:41.688Z,5.50
2018-11-29T16:25:11.281Z,5.50
2018-11-29T16:27:39.745Z,5.50
2018-11-29T16:30:14.325Z,5.40
2018-11-29T16:32:42.823Z,5.40
2018-11-29T16:35:11.201Z,5.40
2018-11-29T16:37:39.658Z,5.40
2018-11-29T16:40:09.102Z,5.40
2018-11-29T16:42:37.616Z,5.40
2018-11-29T16:45:09.336Z,5.30
2018-11-29T16:47:37.941Z,5.40
2018-11-29T16:50:08.591Z,5.40
2018-11-29T16:52:37.370Z,5.30
2018-11-29T16:55:07.365Z,5.30
2018-11-29T16:57:36.052Z,5.20
2018-11-29T17:00:08.561Z,5.10
2018-11-29T17:02:37.128Z,5.10
2018-11-29T17:05:06.203Z,5.00
2018-11-29T17:07:34.669Z,5.00
2018-11-29T17:10:03.302Z,4.90
2018-11-29T17:12:31.781Z,4.80
2018-11-29T17:15:00.418Z,4.80
2018-11-29T17:17:28.932Z,4.80
2018-11-29T17:19:57.484Z,4.90
2018-11-29T17:22:25.891Z,5.00
2018-11-29T17:24:54.461Z,5.00
2018-11-29T17:27:22.843Z,5.00
2018-11-29T17:29:51.381Z,5.00
2018-11-29T17:32:19.938Z,5.10
2018-11-29T17:34:48.398Z,5.10
2018-11-29T17:37:16.787Z,5.10
2018-11-29T17:39:45.181Z,5.10
2018-11-29T17:42:13.644Z,5.10
2018-11-29T17:44:42.230Z,5.00
2018-11-29T17:47:10.586Z,5.10
2018-11-29T17:49:39.044Z,5.00
2018-11-29T17:52:07.465Z,4.80
2018-11-29T17:54:36.129Z,4.80
2018-11-29T17:57:04.554Z,4.60
2018-11-29T17:59:32.933Z,4.70
2018-11-29T18:02:01.375Z,4.80
2018-11-29T18:04:29.883Z,4.70
2018-11-29T18:06:58.170Z,4.70
2018-11-29T18:09:26.626Z,4.60
2018-11-29T18:11:54.922Z,4.60
2018-11-29T18:14:23.278Z,4.50
2018-11-29T18:16:51.673Z,4.40
2018-11-29T18:19:20.106Z,4.40
2018-11-29T18:21:48.575Z,4.30
2018-11-29T18:24:16.996Z,4.10
2018-11-29T18:26:45.373Z,4.10
2018-11-29T18:29:13.749Z,4.10
2018-11-29T18:31:42.202Z,4.00
2018-11-29T18:34:10.538Z,4.00
2018-11-29T18:36:38.901Z,3.90
2018-11-29T18:39:08.951Z,3.90
2018-11-29T18:41:37.414Z,3.80
2018-11-29T18:44:06.533Z,3.70
2018-11-29T18:46:34.882Z,3.60
2018-11-29T18:49:03.347Z,3.70
2018-11-29T18:51:31.734Z,3.70
2018-11-29T18:54:00.233Z,3.50
2018-11-29T18:56:28.630Z,3.70
2018-11-29T18:58:57.008Z,3.80
2018-11-29T19:01:25.453Z,3.70
2018-11-29T19:03:53.787Z,3.80
2018-11-29T19:06:22.274Z,3.70
2018-11-29T19:08:50.572Z,3.90
2018-11-29T19:11:19.059Z,3.80
2018-11-29T19:13:47.355Z,4.00
2018-11-29T19:16:16.000Z,4.00
2018-11-29T19:18:44.404Z,3.70
2018-11-29T19:21:12.785Z,3.70
2018-11-29T19:23:41.240Z,3.80
2018-11-29T19:26:09.713Z,3.80
2018-11-29T19:28:38.088Z,3.70
2018-11-29T19:31:06.482Z,3.90
2018-11-29T19:33:34.877Z,3.80
2018-11-29T19:36:05.061Z,3.70
2018-11-29T19:38:33.387Z,3.90
2018-11-29T19:41:01.737Z,3.90
2018-11-29T19:43:30.123Z,3.90
2018-11-29T19:45:58.609Z,4.00
2018-11-29T19:48:26.936Z,3.90
2018-11-29T19:50:55.366Z,3.80
2018-11-29T19:53:25.043Z,3.80
2018-11-29T19:55:56.340Z,3.60
2018-11-29T19:58:24.804Z,3.60
2018-11-29T20:00:53.268Z,3.50
2018-11-29T20:03:21.636Z,3.50
2018-11-29T20:05:49.992Z,3.30
2018-11-29T20:08:18.371Z,3.20
2018-11-29T20:10:46.862Z,3.10
2018-11-29T20:13:15.708Z,3.10
2018-11-29T20:15:47.760Z,3.20
2018-11-29T20:18:16.075Z,3.00
2018-11-29T20:20:44.485Z,2.80
2018-11-29T20:23:13.211Z,2.80
2018-11-29T20:25:43.831Z,2.90
2018-11-29T20:28:12.287Z,3.10
2018-11-29T20:30:40.689Z,3.00
2018-11-29T20:33:09.069Z,3.10
2018-11-29T20:35:37.445Z,3.10
2018-11-29T20:38:06.552Z,3.10
2018-11-29T20:40:37.708Z,3.10
2018-11-29T20:43:06.357Z,3.20
2018-11-29T20:45:42.225Z,3.30
2018-11-29T20:48:20.111Z,3.30
2018-11-29T20:50:48.908Z,3.20
2018-11-29T20:53:20.330Z,3.00
2018-11-29T20:55:48.744Z,2.90
2018-11-29T20:58:17.195Z,3.00
2018-11-29T21:00:45.623Z,2.90
2018-11-29T21:03:14.005Z,3.10
2018-11-29T21:05:43.075Z,3.10
2018-11-29T21:08:12.078Z,3.20
2018-11-29T21:10:40.476Z,3.30
2018-11-29T21:13:08.935Z,3.30
2018-11-29T21:15:39.269Z,3.40
2018-11-29T21:18:10.013Z,3.50
2018-11-29T21:20:39.635Z,3.60
2018-11-29T21:23:09.517Z,3.50
2018-11-29T21:25:37.875Z,3.40
2018-11-29T21:28:06.991Z,3.50
2018-11-29T21:30:35.506Z,3.60
2018-11-29T21:33:04.333Z,3.70
2018-11-29T21:35:32.641Z,3.80
2018-11-29T21:38:05.172Z,3.70
2018-11-29T21:40:33.387Z,3.80
2018-11-29T21:43:01.637Z,4.00
2018-11-29T21:45:29.839Z,4.00
2018-11-29T21:47:58.080Z,4.20
2018-11-29T21:50:26.282Z,4.30
2018-11-29T21:52:54.481Z,4.40
2018-11-29T21:55:22.704Z,4.40
2018-11-29T21:57:51.313Z,4.50
2018-11-29T22:00:20.899Z,4.30
2018-11-29T22:02:50.631Z,4.30
2018-11-29T22:05:18.831Z,4.40
2018-11-29T22:07:47.063Z,4.60
2018-11-29T22:10:15.265Z,4.40
2018-11-29T22:12:43.540Z,4.30
2018-11-29T22:15:12.223Z,4.40
2018-11-29T22:17:50.783Z,4.60
2018-11-29T22:20:18.999Z,4.70
2018-11-29T22:22:47.225Z,4.90
2018-11-29T22:25:15.444Z,5.00
2018-11-29T22:27:43.641Z,5.10
2018-11-29T22:30:11.901Z,5.10
2018-11-29T22:32:40.247Z,5.40
2018-11-29T22:35:09.069Z,5.30
2018-11-29T22:37:37.655Z,5.30
2018-11-29T22:40:06.703Z,5.40
2018-11-29T22:42:34.930Z,5.30
2018-11-29T22:45:03.185Z,5.30
2018-11-29T22:47:31.367Z,5.30
2018-11-29T22:49:59.563Z,5.20
2018-11-29T22:52:27.807Z,5.10
2018-11-29T22:54:56.031Z,5.20
2018-11-29T22:57:24.282Z,5.20
2018-11-29T22:59:52.527Z,5.40
2018-11-29T23:02:20.740Z,5.60
2018-11-29T23:04:48.984Z,5.70
2018-11-29T23:07:17.192Z,5.70
2018-11-29T23:09:45.405Z,5.60
2018-11-29T23:12:13.715Z,5.60
2018-11-29T23:14:41.952Z,5.50
2018-11-29T23:17:10.161Z,5.50
2018-11-29T23:19:38.338Z,5.50
2018-11-29T23:22:06.526Z,5.60
2018-11-29T23:24:34.797Z,5.80
2018-11-29T23:27:03.708Z,5.70
2018-11-29T23:29:31.932Z,5.80
2018-11-29T23:32:00.137Z,5.80
2018-11-29T23:34:28.411Z,5.80
2018-11-29T23:36:56.608Z,5.80
2018-11-29T23:39:24.850Z,5.70
2018-11-29T23:41:53.056Z,5.80
2018-11-29T23:44:21.273Z,5.80
2018-11-29T23:46:49.508Z,5.90
2018-11-29T23:49:17.720Z,5.90
2018-11-29T23:51:45.973Z,6.00
2018-11-29T23:54:14.203Z,6.00
2018-11-29T23:56:42.427Z,5.90
2018-11-29T23:59:10.655Z,6.00
